Terminal Aerodrome Forecast
Issued by NWS Wilmington, OH

Current Version | Previous Version | Graphics & Text | Print | Product List | Glossary On
Versions: 1 2 3 4 5 6 7 8 9 10 11 12 13 14
000
FTUS41 KILN 032300
TAFILN
TAF
KILN 032327Z 0400/0424 18008KT P6SM FEW080
     FM040100 19005KT P6SM SCT150
     FM041200 20010KT P6SM BKN150
     FM041500 22012G20KT P6SM SCT050 BKN150
     FM042200 21009KT P6SM SCT090 BKN250=

USA.gov is the U.S. government's official web portal to all federal, state and local government web resources and services.